sensor_id;sensor_type;location;lat;lon;timestamp;pressure;altitude;pressure_sealevel;temperature;humidity
22440;BME280;11387;51.612;7.210;2022-09-13T00:00:49;100196.59;;;17.15;67.79
22440;BME280;11387;51.612;7.210;2022-09-13T00:03:19;100191.63;;;17.21;66.99
22440;BME280;11387;51.612;7.210;2022-09-13T00:05:48;100187.50;;;17.14;68.30
22440;BME280;11387;51.612;7.210;2022-09-13T00:08:16;100180.66;;;17.08;68.33
22440;BME280;11387;51.612;7.210;2022-09-13T00:10:45;100185.28;;;17.04;68.13
22440;BME280;11387;51.612;7.210;2022-09-13T00:13:14;100177.09;;;17.08;67.60
22440;BME280;11387;51.612;7.210;2022-09-13T00:15:43;100177.69;;;17.01;68.56
22440;BME280;11387;51.612;7.210;2022-09-13T00:18:12;100179.53;;;16.97;68.07
22440;BME280;11387;51.612;7.210;2022-09-13T00:20:42;100175.72;;;17.02;67.78
22440;BME280;11387;51.612;7.210;2022-09-13T00:23:10;100173.63;;;17.27;66.71
22440;BME280;11387;51.612;7.210;2022-09-13T00:25:39;100174.44;;;17.27;66.47
22440;BME280;11387;51.612;7.210;2022-09-13T00:28:07;100171.25;;;17.41;65.61
22440;BME280;11387;51.612;7.210;2022-09-13T00:30:35;100163.13;;;17.48;65.41
22440;BME280;11387;51.612;7.210;2022-09-13T00:33:04;100157.13;;;17.46;65.61
22440;BME280;11387;51.612;7.210;2022-09-13T00:35:32;100159.47;;;17.44;65.62
22440;BME280;11387;51.612;7.210;2022-09-13T00:38:02;100146.72;;;17.39;65.81
22440;BME280;11387;51.612;7.210;2022-09-13T00:40:36;100157.69;;;17.36;66.09
22440;BME280;11387;51.612;7.210;2022-09-13T00:43:08;100150.34;;;17.28;66.11
22440;BME280;11387;51.612;7.210;2022-09-13T00:45:39;100150.25;;;17.24;66.42
22440;BME280;11387;51.612;7.210;2022-09-13T00:48:11;100145.34;;;17.17;66.48
22440;BME280;11387;51.612;7.210;2022-09-13T00:50:42;100143.75;;;17.16;66.72
22440;BME280;11387;51.612;7.210;2022-09-13T00:53:19;100144.03;;;17.11;67.69
22440;BME280;11387;51.612;7.210;2022-09-13T00:55:54;100136.44;;;17.08;67.95
22440;BME280;11387;51.612;7.210;2022-09-13T00:58:25;100143.56;;;17.09;67.47
22440;BME280;11387;51.612;7.210;2022-09-13T01:00:56;100143.75;;;17.16;66.99
22440;BME280;11387;51.612;7.210;2022-09-13T01:03:28;100140.25;;;17.20;67.14
22440;BME280;11387;51.612;7.210;2022-09-13T01:06:01;100145.09;;;17.23;66.70
22440;BME280;11387;51.612;7.210;2022-09-13T01:08:35;100146.25;;;17.22;67.72
22440;BME280;11387;51.612;7.210;2022-09-13T01:11:05;100144.44;;;17.13;68.39
22440;BME280;11387;51.612;7.210;2022-09-13T01:13:38;100139.34;;;17.00;69.52
22440;BME280;11387;51.612;7.210;2022-09-13T01:16:07;100142.50;;;16.86;69.25
22440;BME280;11387;51.612;7.210;2022-09-13T01:18:35;100143.75;;;16.73;69.88
22440;BME280;11387;51.612;7.210;2022-09-13T01:24:32;100130.88;;;16.52;70.81
22440;BME280;11387;51.612;7.210;2022-09-13T01:27:32;100126.31;;;16.44;71.18
22440;BME280;11387;51.612;7.210;2022-09-13T01:30:07;100129.78;;;16.41;71.58
22440;BME280;11387;51.612;7.210;2022-09-13T01:35:52;100132.53;;;16.41;71.31
22440;BME280;11387;51.612;7.210;2022-09-13T01:38:39;100130.47;;;16.38;71.71
22440;BME280;11387;51.612;7.210;2022-09-13T01:41:19;100132.44;;;16.26;72.88
22440;BME280;11387;51.612;7.210;2022-09-13T01:43:56;100128.22;;;16.16;73.73
22440;BME280;11387;51.612;7.210;2022-09-13T01:46:34;100124.78;;;16.07;74.01
22440;BME280;11387;51.612;7.210;2022-09-13T01:49:10;100122.72;;;16.04;74.45
22440;BME280;11387;51.612;7.210;2022-09-13T01:51:47;100118.94;;;15.96;74.85
22440;BME280;11387;51.612;7.210;2022-09-13T01:54:20;100124.44;;;15.96;75.08
22440;BME280;11387;51.612;7.210;2022-09-13T01:56:57;100126.88;;;15.98;75.41
22440;BME280;11387;51.612;7.210;2022-09-13T01:59:34;100128.47;;;15.99;75.40
22440;BME280;11387;51.612;7.210;2022-09-13T02:02:10;100121.34;;;15.98;75.41
22440;BME280;11387;51.612;7.210;2022-09-13T02:04:43;100123.66;;;15.96;75.68
22440;BME280;11387;51.612;7.210;2022-09-13T02:07:16;100122.50;;;15.97;75.95
22440;BME280;11387;51.612;7.210;2022-09-13T02:09:49;100130.09;;;16.00;75.68
22440;BME280;11387;51.612;7.210;2022-09-13T02:12:22;100127.56;;;16.07;75.70
22440;BME280;11387;51.612;7.210;2022-09-13T02:14:55;100136.41;;;16.12;75.71
22440;BME280;11387;51.612;7.210;2022-09-13T02:17:31;100138.47;;;16.15;75.50
22440;BME280;11387;51.612;7.210;2022-09-13T02:20:06;100144.78;;;16.16;75.53
22440;BME280;11387;51.612;7.210;2022-09-13T02:22:39;100140.88;;;16.17;75.76
22440;BME280;11387;51.612;7.210;2022-09-13T02:25:11;100133.75;;;16.16;75.77
22440;BME280;11387;51.612;7.210;2022-09-13T02:27:44;100133.28;;;16.14;75.81
22440;BME280;11387;51.612;7.210;2022-09-13T02:30:14;100129.72;;;16.13;75.86
22440;BME280;11387;51.612;7.210;2022-09-13T02:32:48;100130.53;;;16.14;75.99
22440;BME280;11387;51.612;7.210;2022-09-13T02:35:21;100131.22;;;16.11;75.93
22440;BME280;11387;51.612;7.210;2022-09-13T02:37:56;100128.94;;;16.13;76.30
22440;BME280;11387;51.612;7.210;2022-09-13T02:40:27;100120.31;;;16.14;76.23
22440;BME280;11387;51.612;7.210;2022-09-13T02:43:04;100114.16;;;16.21;75.56
22440;BME280;11387;51.612;7.210;2022-09-13T02:45:41;100123.22;;;16.34;72.68
22440;BME280;11387;51.612;7.210;2022-09-13T02:48:19;100117.69;;;16.46;72.60
22440;BME280;11387;51.612;7.210;2022-09-13T02:50:58;100115.03;;;16.49;72.18
22440;BME280;11387;51.612;7.210;2022-09-13T02:53:28;100101.75;;;16.55;73.37
22440;BME280;11387;51.612;7.210;2022-09-13T02:56:07;100108.19;;;16.59;71.71
22440;BME280;11387;51.612;7.210;2022-09-13T02:58:43;100117.28;;;16.60;72.49
22440;BME280;11387;51.612;7.210;2022-09-13T03:01:13;100123.25;;;16.62;73.38
22440;BME280;11387;51.612;7.210;2022-09-13T03:03:43;100119.59;;;16.58;74.66
22440;BME280;11387;51.612;7.210;2022-09-13T03:06:11;100119.81;;;16.52;75.35
22440;BME280;11387;51.612;7.210;2022-09-13T03:08:40;100116.63;;;16.50;75.90
22440;BME280;11387;51.612;7.210;2022-09-13T03:11:14;100122.50;;;16.49;76.60
22440;BME280;11387;51.612;7.210;2022-09-13T03:13:58;100115.72;;;16.46;76.82
22440;BME280;11387;51.612;7.210;2022-09-13T03:16:48;100123.56;;;16.44;77.13
22440;BME280;11387;51.612;7.210;2022-09-13T03:19:40;100121.94;;;16.43;77.61
22440;BME280;11387;51.612;7.210;2022-09-13T03:22:30;100136.56;;;16.44;78.41
22440;BME280;11387;51.612;7.210;2022-09-13T03:25:07;100135.28;;;16.41;79.25
22440;BME280;11387;51.612;7.210;2022-09-13T03:27:44;100131.16;;;16.35;79.30
22440;BME280;11387;51.612;7.210;2022-09-13T03:30:17;100129.78;;;16.29;79.42
22440;BME280;11387;51.612;7.210;2022-09-13T03:32:49;100130.13;;;16.28;79.19
22440;BME280;11387;51.612;7.210;2022-09-13T03:35:26;100144.84;;;16.32;79.63
22440;BME280;11387;51.612;7.210;2022-09-13T03:38:00;100130.13;;;16.28;80.06
22440;BME280;11387;51.612;7.210;2022-09-13T03:40:39;100130.94;;;16.28;80.06
22440;BME280;11387;51.612;7.210;2022-09-13T03:43:11;100135.44;;;16.33;80.06
22440;BME280;11387;51.612;7.210;2022-09-13T03:45:46;100127.84;;;16.30;79.72
22440;BME280;11387;51.612;7.210;2022-09-13T03:48:17;100133.47;;;16.33;79.83
22440;BME280;11387;51.612;7.210;2022-09-13T03:50:47;100131.88;;;16.32;79.86
22440;BME280;11387;51.612;7.210;2022-09-13T03:53:20;100128.66;;;16.30;80.13
22440;BME280;11387;51.612;7.210;2022-09-13T03:55:50;100131.16;;;16.35;80.28
22440;BME280;11387;51.612;7.210;2022-09-13T03:58:19;100123.34;;;16.37;79.93
22440;BME280;11387;51.612;7.210;2022-09-13T04:00:48;100125.66;;;16.35;80.18
22440;BME280;11387;51.612;7.210;2022-09-13T04:03:16;100116.91;;;16.33;80.21
22440;BME280;11387;51.612;7.210;2022-09-13T04:05:44;100112.78;;;16.27;80.30
22440;BME280;11387;51.612;7.210;2022-09-13T04:08:14;100117.38;;;16.23;80.46
22440;BME280;11387;51.612;7.210;2022-09-13T04:10:42;100114.28;;;16.25;80.64
22440;BME280;11387;51.612;7.210;2022-09-13T04:13:11;100109.56;;;16.25;80.39
22440;BME280;11387;51.612;7.210;2022-09-13T04:15:39;100116.91;;;16.33;80.43
22440;BME280;11387;51.612;7.210;2022-09-13T04:18:07;100111.38;;;16.33;80.26
22440;BME280;11387;51.612;7.210;2022-09-13T04:20:37;100100.59;;;16.28;79.92
22440;BME280;11387;51.612;7.210;2022-09-13T04:23:05;100108.75;;;16.25;80.11
22440;BME280;11387;51.612;7.210;2022-09-13T04:25:37;100110.81;;;16.28;80.32
22440;BME280;11387;51.612;7.210;2022-09-13T04:28:06;100103.00;;;16.30;80.17
22440;BME280;11387;51.612;7.210;2022-09-13T04:30:35;100110.00;;;16.27;80.30
22440;BME280;11387;51.612;7.210;2022-09-13T04:33:08;100108.31;;;16.23;80.17
22440;BME280;11387;51.612;7.210;2022-09-13T04:35:36;100106.25;;;16.20;80.08
22440;BME280;11387;51.612;7.210;2022-09-13T04:38:05;100113.13;;;16.26;79.94
22440;BME280;11387;51.612;7.210;2022-09-13T04:40:35;100115.53;;;16.27;80.02
22440;BME280;11387;51.612;7.210;2022-09-13T04:43:04;100124.63;;;16.28;79.94
22440;BME280;11387;51.612;7.210;2022-09-13T04:45:33;100121.63;;;16.33;80.35
22440;BME280;11387;51.612;7.210;2022-09-13T04:48:01;100120.47;;;16.34;80.37
22440;BME280;11387;51.612;7.210;2022-09-13T04:50:30;100109.78;;;16.32;80.08
22440;BME280;11387;51.612;7.210;2022-09-13T04:52:58;100115.53;;;16.27;80.50
22440;BME280;11387;51.612;7.210;2022-09-13T04:55:26;100116.69;;;16.26;80.42
22440;BME280;11387;51.612;7.210;2022-09-13T04:57:56;100114.38;;;16.28;80.67
22440;BME280;11387;51.612;7.210;2022-09-13T05:00:24;100116.09;;;16.33;80.29
22440;BME280;11387;51.612;7.210;2022-09-13T05:02:55;100116.66;;;16.38;79.62
22440;BME280;11387;51.612;7.210;2022-09-13T05:05:23;100119.66;;;16.45;79.37
22440;BME280;11387;51.612;7.210;2022-09-13T05:07:54;100110.22;;;16.46;78.75
22440;BME280;11387;51.612;7.210;2022-09-13T05:10:22;100110.22;;;16.46;78.52
22440;BME280;11387;51.612;7.210;2022-09-13T05:12:51;100111.13;;;16.50;75.91
22440;BME280;11387;51.612;7.210;2022-09-13T05:15:20;100111.28;;;16.58;75.21
22440;BME280;11387;51.612;7.210;2022-09-13T05:17:48;100115.66;;;16.71;73.77
22440;BME280;11387;51.612;7.210;2022-09-13T05:20:16;100111.03;;;16.75;73.82
22440;BME280;11387;51.612;7.210;2022-09-13T05:22:45;100111.50;;;16.77;73.36
22440;BME280;11387;51.612;7.210;2022-09-13T05:25:13;100118.28;;;16.79;73.29
22440;BME280;11387;51.612;7.210;2022-09-13T05:27:41;100127.09;;;16.85;72.95
22440;BME280;11387;51.612;7.210;2022-09-13T05:30:12;100105.09;;;16.89;72.72
22440;BME280;11387;51.612;7.210;2022-09-13T05:32:42;100113.03;;;16.90;72.64
22440;BME280;11387;51.612;7.210;2022-09-13T05:35:10;100120.34;;;16.98;72.39
22440;BME280;11387;51.612;7.210;2022-09-13T05:37:39;100121.81;;;17.08;71.73
22440;BME280;11387;51.612;7.210;2022-09-13T05:40:08;100132.50;;;17.09;72.18
22440;BME280;11387;51.612;7.210;2022-09-13T05:42:38;100127.44;;;17.11;72.29
22440;BME280;11387;51.612;7.210;2022-09-13T05:45:07;100118.59;;;17.22;71.79
22440;BME280;11387;51.612;7.210;2022-09-13T05:47:36;100125.84;;;17.26;71.21
22440;BME280;11387;51.612;7.210;2022-09-13T05:50:06;100133.97;;;17.35;70.99
22440;BME280;11387;51.612;7.210;2022-09-13T05:52:51;100137.19;;;17.37;70.90
22440;BME280;11387;51.612;7.210;2022-09-13T05:55:19;100137.28;;;17.40;71.14
22440;BME280;11387;51.612;7.210;2022-09-13T05:57:48;100133.50;;;17.48;70.49
22440;BME280;11387;51.612;7.210;2022-09-13T06:00:16;100142.34;;;17.54;70.43
22440;BME280;11387;51.612;7.210;2022-09-13T06:02:44;100129.66;;;17.53;69.67
22440;BME280;11387;51.612;7.210;2022-09-13T06:05:14;100134.75;;;17.51;69.93
22440;BME280;11387;51.612;7.210;2022-09-13T06:07:43;100130.75;;;17.48;69.93
22440;BME280;11387;51.612;7.210;2022-09-13T06:10:11;100142.25;;;17.50;69.92
22440;BME280;11387;51.612;7.210;2022-09-13T06:12:39;100142.78;;;17.56;69.56
22440;BME280;11387;51.612;7.210;2022-09-13T06:15:08;100139.56;;;17.54;69.65
22440;BME280;11387;51.612;7.210;2022-09-13T06:17:37;100151.09;;;17.56;70.07
22440;BME280;11387;51.612;7.210;2022-09-13T06:20:06;100152.25;;;17.55;70.15
22440;BME280;11387;51.612;7.210;2022-09-13T06:22:36;100149.47;;;17.55;70.30
22440;BME280;11387;51.612;7.210;2022-09-13T06:25:05;100148.31;;;17.56;70.13
22440;BME280;11387;51.612;7.210;2022-09-13T06:27:33;100148.88;;;17.62;70.06
22440;BME280;11387;51.612;7.210;2022-09-13T06:30:02;100153.72;;;17.65;69.85
22440;BME280;11387;51.612;7.210;2022-09-13T06:32:30;100149.16;;;17.72;69.76
22440;BME280;11387;51.612;7.210;2022-09-13T06:34:58;100148.16;;;17.80;69.32
22440;BME280;11387;51.612;7.210;2022-09-13T06:37:26;100150.38;;;17.91;68.89
22440;BME280;11387;51.612;7.210;2022-09-13T06:39:55;100147.78;;;17.98;68.42
22440;BME280;11387;51.612;7.210;2022-09-13T06:42:24;100145.16;;;18.05;68.60
22440;BME280;11387;51.612;7.210;2022-09-13T06:44:52;100145.06;;;18.17;68.49
22440;BME280;11387;51.612;7.210;2022-09-13T06:47:20;100145.84;;;18.33;67.28
22440;BME280;11387;51.612;7.210;2022-09-13T06:49:48;100145.41;;;18.50;66.52
22440;BME280;11387;51.612;7.210;2022-09-13T06:52:17;100148.19;;;18.70;65.67
22440;BME280;11387;51.612;7.210;2022-09-13T06:54:45;100141.34;;;18.83;65.62
22440;BME280;11387;51.612;7.210;2022-09-13T06:57:14;100160.00;;;19.05;65.51
22440;BME280;11387;51.612;7.210;2022-09-13T06:59:43;100146.56;;;19.07;64.52
22440;BME280;11387;51.612;7.210;2022-09-13T07:02:11;100148.31;;;19.15;64.02
22440;BME280;11387;51.612;7.210;2022-09-13T07:04:40;100149.91;;;19.16;63.74
22440;BME280;11387;51.612;7.210;2022-09-13T07:07:08;100151.34;;;19.30;63.36
22440;BME280;11387;51.612;7.210;2022-09-13T07:09:36;100158.19;;;19.36;63.29
22440;BME280;11387;51.612;7.210;2022-09-13T07:12:05;100149.06;;;19.55;63.15
22440;BME280;11387;51.612;7.210;2022-09-13T07:14:35;100148.72;;;19.82;62.36
22440;BME280;11387;51.612;7.210;2022-09-13T07:17:03;100158.09;;;20.27;61.12
22440;BME280;11387;51.612;7.210;2022-09-13T07:19:31;100160.38;;;20.44;60.39
22440;BME280;11387;51.612;7.210;2022-09-13T07:21:59;100155.66;;;20.78;58.73
22440;BME280;11387;51.612;7.210;2022-09-13T07:24:28;100155.19;;;21.10;57.15
22440;BME280;11387;51.612;7.210;2022-09-13T07:26:57;100154.31;;;21.36;57.40
22440;BME280;11387;51.612;7.210;2022-09-13T07:29:25;100149.09;;;21.31;57.58
22440;BME280;11387;51.612;7.210;2022-09-13T07:31:54;100155.84;;;21.30;57.36
22440;BME280;11387;51.612;7.210;2022-09-13T07:34:25;100155.16;;;21.40;56.76
22440;BME280;11387;51.612;7.210;2022-09-13T07:36:53;100151.38;;;21.62;56.40
22440;BME280;11387;51.612;7.210;2022-09-13T07:39:21;100157.22;;;21.98;54.90
22440;BME280;11387;51.612;7.210;2022-09-13T07:41:50;100152.38;;;22.49;54.17
22440;BME280;11387;51.612;7.210;2022-09-13T07:44:19;100155.69;;;22.73;52.68
22440;BME280;11387;51.612;7.210;2022-09-13T07:46:48;100163.00;;;23.06;52.66
22440;BME280;11387;51.612;7.210;2022-09-13T07:49:18;100154.59;;;22.92;52.18
22440;BME280;11387;51.612;7.210;2022-09-13T07:51:46;100161.16;;;22.51;53.82
22440;BME280;11387;51.612;7.210;2022-09-13T07:54:18;100164.56;;;22.89;52.70
22440;BME280;11387;51.612;7.210;2022-09-13T07:56:46;100161.09;;;23.45;50.94
22440;BME280;11387;51.612;7.210;2022-09-13T07:59:16;100163.53;;;23.61;50.89
22440;BME280;11387;51.612;7.210;2022-09-13T08:01:49;100162.75;;;23.71;50.83
22440;BME280;11387;51.612;7.210;2022-09-13T08:04:23;100165.91;;;25.32;46.96
22440;BME280;11387;51.612;7.210;2022-09-13T08:06:53;100168.31;;;27.01;43.60
22440;BME280;11387;51.612;7.210;2022-09-13T08:09:21;100167.75;;;29.16;38.95
22440;BME280;11387;51.612;7.210;2022-09-13T08:11:50;100169.16;;;30.84;35.15
22440;BME280;11387;51.612;7.210;2022-09-13T08:14:21;100175.97;;;32.26;33.70
22440;BME280;11387;51.612;7.210;2022-09-13T08:16:49;100157.41;;;34.01;30.18
22440;BME280;11387;51.612;7.210;2022-09-13T08:19:18;100163.31;;;34.53;28.69
22440;BME280;11387;51.612;7.210;2022-09-13T08:21:47;100166.28;;;35.46;27.80
22440;BME280;11387;51.612;7.210;2022-09-13T08:24:17;100165.69;;;35.33;27.83
22440;BME280;11387;51.612;7.210;2022-09-13T08:26:45;100166.31;;;32.58;31.13
22440;BME280;11387;51.612;7.210;2022-09-13T08:29:15;100160.22;;;32.12;31.57
22440;BME280;11387;51.612;7.210;2022-09-13T08:31:43;100164.06;;;32.31;31.29
22440;BME280;11387;51.612;7.210;2022-09-13T08:34:13;100168.34;;;32.35;31.64
22440;BME280;11387;51.612;7.210;2022-09-13T08:36:42;100166.72;;;33.93;29.09
22440;BME280;11387;51.612;7.210;2022-09-13T08:39:12;100164.34;;;32.67;31.44
22440;BME280;11387;51.612;7.210;2022-09-13T08:41:58;100162.13;;;33.46;30.78
22440;BME280;11387;51.612;7.210;2022-09-13T08:44:33;100167.06;;;34.68;28.68
22440;BME280;11387;51.612;7.210;2022-09-13T08:47:10;100164.50;;;35.06;27.31
22440;BME280;11387;51.612;7.210;2022-09-13T08:49:43;100173.41;;;34.35;29.21
22440;BME280;11387;51.612;7.210;2022-09-13T08:52:22;100167.09;;;34.50;29.04
22440;BME280;11387;51.612;7.210;2022-09-13T08:54:57;100165.19;;;34.47;29.33
22440;BME280;11387;51.612;7.210;2022-09-13T08:57:31;100168.66;;;34.69;29.01
22440;BME280;11387;51.612;7.210;2022-09-13T09:00:11;100154.28;;;33.50;29.69
22440;BME280;11387;51.612;7.210;2022-09-13T09:02:59;100162.47;;;31.70;32.89
22440;BME280;11387;51.612;7.210;2022-09-13T09:05:30;100164.91;;;33.37;31.66
22440;BME280;11387;51.612;7.210;2022-09-13T09:08:02;100154.75;;;33.18;30.94
22440;BME280;11387;51.612;7.210;2022-09-13T09:10:38;100161.09;;;33.71;30.74
22440;BME280;11387;51.612;7.210;2022-09-13T09:13:08;100158.66;;;34.92;29.14
22440;BME280;11387;51.612;7.210;2022-09-13T09:15:42;100154.41;;;34.96;28.12
22440;BME280;11387;51.612;7.210;2022-09-13T09:18:13;100152.59;;;35.17;27.98
22440;BME280;11387;51.612;7.210;2022-09-13T09:20:46;100151.97;;;36.36;27.64
22440;BME280;11387;51.612;7.210;2022-09-13T09:23:18;100157.28;;;36.19;27.64
22440;BME280;11387;51.612;7.210;2022-09-13T09:25:55;100159.84;;;36.56;26.17
22440;BME280;11387;51.612;7.210;2022-09-13T09:28:24;100156.84;;;37.03;26.29
22440;BME280;11387;51.612;7.210;2022-09-13T09:30:57;100155.66;;;36.66;26.17
22440;BME280;11387;51.612;7.210;2022-09-13T09:33:38;100150.28;;;35.06;27.90
22440;BME280;11387;51.612;7.210;2022-09-13T09:36:18;100156.97;;;35.27;27.80
22440;BME280;11387;51.612;7.210;2022-09-13T09:38:50;100158.75;;;35.91;27.38
22440;BME280;11387;51.612;7.210;2022-09-13T09:41:27;100161.78;;;36.35;26.58
22440;BME280;11387;51.612;7.210;2022-09-13T09:44:01;100152.47;;;36.49;26.66
22440;BME280;11387;51.612;7.210;2022-09-13T09:46:37;100149.69;;;36.01;27.11
22440;BME280;11387;51.612;7.210;2022-09-13T09:49:13;100144.94;;;35.74;28.02
22440;BME280;11387;51.612;7.210;2022-09-13T09:51:58;100145.38;;;36.44;27.76
22440;BME280;11387;51.612;7.210;2022-09-13T09:54:26;100152.72;;;36.90;26.10
22440;BME280;11387;51.612;7.210;2022-09-13T09:56:58;100147.34;;;34.64;29.80
22440;BME280;11387;51.612;7.210;2022-09-13T09:59:29;100151.44;;;35.42;27.92
22440;BME280;11387;51.612;7.210;2022-09-13T10:01:59;100152.25;;;35.24;28.38
22440;BME280;11387;51.612;7.210;2022-09-13T10:04:31;100151.66;;;35.86;27.86
22440;BME280;11387;51.612;7.210;2022-09-13T10:07:16;100150.38;;;36.11;27.33
22440;BME280;11387;51.612;7.210;2022-09-13T10:09:57;100166.59;;;36.43;27.35
22440;BME280;11387;51.612;7.210;2022-09-13T10:12:28;100153.88;;;37.13;26.63
22440;BME280;11387;51.612;7.210;2022-09-13T10:15:14;100157.59;;;38.18;24.95
22440;BME280;11387;51.612;7.210;2022-09-13T10:18:00;100154.38;;;37.40;25.92
22440;BME280;11387;51.612;7.210;2022-09-13T10:20:29;100145.78;;;36.52;27.73
22440;BME280;11387;51.612;7.210;2022-09-13T10:23:19;100153.31;;;36.02;28.60
22440;BME280;11387;51.612;7.210;2022-09-13T10:26:00;100152.09;;;33.54;31.60
22440;BME280;11387;51.612;7.210;2022-09-13T10:28:44;100157.28;;;33.65;31.79
22440;BME280;11387;51.612;7.210;2022-09-13T10:31:15;100153.03;;;34.37;30.58
22440;BME280;11387;51.612;7.210;2022-09-13T10:33:54;100155.09;;;36.14;28.26
22440;BME280;11387;51.612;7.210;2022-09-13T10:36:27;100154.13;;;35.69;28.49
22440;BME280;11387;51.612;7.210;2022-09-13T10:39:18;100151.69;;;35.11;29.57
22440;BME280;11387;51.612;7.210;2022-09-13T10:41:49;100151.53;;;35.81;28.14
22440;BME280;11387;51.612;7.210;2022-09-13T10:44:26;100152.06;;;36.18;29.17
22440;BME280;11387;51.612;7.210;2022-09-13T10:46:58;100140.63;;;36.95;27.67
22440;BME280;11387;51.612;7.210;2022-09-13T10:49:36;100139.41;;;37.31;26.73
22440;BME280;11387;51.612;7.210;2022-09-13T10:52:25;100131.84;;;37.98;25.80
22440;BME280;11387;51.612;7.210;2022-09-13T10:54:54;100139.25;;;38.10;26.50
22440;BME280;11387;51.612;7.210;2022-09-13T10:57:31;100137.13;;;38.25;25.67
22440;BME280;11387;51.612;7.210;2022-09-13T11:00:04;100134.31;;;37.70;26.03
22440;BME280;11387;51.612;7.210;2022-09-13T11:02:55;100130.81;;;38.93;25.12
22440;BME280;11387;51.612;7.210;2022-09-13T11:05:29;100123.78;;;41.21;23.13
22440;BME280;11387;51.612;7.210;2022-09-13T11:08:20;100124.56;;;42.65;20.70
22440;BME280;11387;51.612;7.210;2022-09-13T11:11:00;100120.44;;;43.26;19.73
22440;BME280;11387;51.612;7.210;2022-09-13T11:13:42;100118.16;;;42.83;20.30
22440;BME280;11387;51.612;7.210;2022-09-13T11:16:33;100120.63;;;40.96;22.01
22440;BME280;11387;51.612;7.210;2022-09-13T11:19:46;100120.97;;;40.17;23.09
22440;BME280;11387;51.612;7.210;2022-09-13T11:22:35;100118.53;;;38.87;24.75
22440;BME280;11387;51.612;7.210;2022-09-13T11:25:16;100108.72;;;40.16;23.86
22440;BME280;11387;51.612;7.210;2022-09-13T11:27:59;100122.03;;;41.92;20.92
22440;BME280;11387;51.612;7.210;2022-09-13T11:30:37;100103.28;;;42.38;20.90
22440;BME280;11387;51.612;7.210;2022-09-13T11:33:26;100104.13;;;41.64;21.84
22440;BME280;11387;51.612;7.210;2022-09-13T11:36:28;100111.91;;;42.79;20.59
22440;BME280;11387;51.612;7.210;2022-09-13T11:39:11;100111.63;;;43.13;19.73
22440;BME280;11387;51.612;7.210;2022-09-13T11:41:53;100109.06;;;41.69;21.17
22440;BME280;11387;51.612;7.210;2022-09-13T11:44:46;100103.44;;;43.47;20.25
22440;BME280;11387;51.612;7.210;2022-09-13T11:47:29;100102.22;;;43.85;19.07
22440;BME280;11387;51.612;7.210;2022-09-13T11:50:32;100098.03;;;43.86;19.58
22440;BME280;11387;51.612;7.210;2022-09-13T11:53:22;100102.28;;;44.60;19.10
22440;BME280;11387;51.612;7.210;2022-09-13T11:55:59;100090.31;;;39.00;24.33
22440;BME280;11387;51.612;7.210;2022-09-13T11:58:33;100090.22;;;35.14;29.92
22440;BME280;11387;51.612;7.210;2022-09-13T12:01:05;100084.63;;;33.49;32.40
22440;BME280;11387;51.612;7.210;2022-09-13T12:03:38;100085.56;;;31.97;35.42
22440;BME280;11387;51.612;7.210;2022-09-13T12:06:14;100075.16;;;31.34;36.64
22440;BME280;11387;51.612;7.210;2022-09-13T12:08:49;100081.72;;;30.80;38.79
22440;BME280;11387;51.612;7.210;2022-09-13T12:11:38;100076.63;;;30.75;38.62
22440;BME280;11387;51.612;7.210;2022-09-13T12:14:13;100080.53;;;32.57;36.12
22440;BME280;11387;51.612;7.210;2022-09-13T12:16:44;100082.41;;;31.95;36.63
22440;BME280;11387;51.612;7.210;2022-09-13T12:19:19;100080.09;;;32.59;35.76
22440;BME280;11387;51.612;7.210;2022-09-13T12:21:52;100070.28;;;31.72;36.96
22440;BME280;11387;51.612;7.210;2022-09-13T12:24:28;100080.13;;;30.37;39.30
22440;BME280;11387;51.612;7.210;2022-09-13T12:27:06;100076.44;;;29.95;40.90
22440;BME280;11387;51.612;7.210;2022-09-13T12:29:43;100073.56;;;29.82;41.20
22440;BME280;11387;51.612;7.210;2022-09-13T12:32:15;100071.97;;;30.27;40.90
22440;BME280;11387;51.612;7.210;2022-09-13T12:34:47;100075.84;;;31.25;38.99
22440;BME280;11387;51.612;7.210;2022-09-13T12:37:32;100072.66;;;33.54;34.66
22440;BME280;11387;51.612;7.210;2022-09-13T12:40:18;100062.13;;;32.84;36.06
22440;BME280;11387;51.612;7.210;2022-09-13T12:43:08;100064.75;;;32.25;36.44
22440;BME280;11387;51.612;7.210;2022-09-13T12:46:02;100072.88;;;32.01;37.00
22440;BME280;11387;51.612;7.210;2022-09-13T12:48:48;100069.19;;;33.68;33.68
22440;BME280;11387;51.612;7.210;2022-09-13T12:51:28;100063.28;;;33.94;33.02
22440;BME280;11387;51.612;7.210;2022-09-13T12:54:21;100064.03;;;34.49;32.13
22440;BME280;11387;51.612;7.210;2022-09-13T12:57:06;100062.63;;;34.35;32.46
22440;BME280;11387;51.612;7.210;2022-09-13T12:59:49;100065.47;;;33.99;33.06
22440;BME280;11387;51.612;7.210;2022-09-13T13:02:26;100054.00;;;32.20;36.01
22440;BME280;11387;51.612;7.210;2022-09-13T13:04:57;100063.34;;;32.08;36.56
22440;BME280;11387;51.612;7.210;2022-09-13T13:07:30;100065.81;;;32.40;36.45
22440;BME280;11387;51.612;7.210;2022-09-13T13:10:02;100057.75;;;34.96;31.64
22440;BME280;11387;51.612;7.210;2022-09-13T13:12:33;100057.16;;;36.35;29.08
22440;BME280;11387;51.612;7.210;2022-09-13T13:18:56;100061.78;;;36.09;30.20
22440;BME280;11387;51.612;7.210;2022-09-13T13:21:31;100055.66;;;35.06;31.25
22440;BME280;11387;51.612;7.210;2022-09-13T13:27:40;100050.50;;;38.39;26.78
22440;BME280;11387;51.612;7.210;2022-09-13T13:30:51;100052.69;;;38.76;26.22
22440;BME280;11387;51.612;7.210;2022-09-13T13:33:28;100046.09;;;38.13;26.61
22440;BME280;11387;51.612;7.210;2022-09-13T13:36:20;100055.13;;;36.12;30.37
22440;BME280;11387;51.612;7.210;2022-09-13T13:38:50;100047.97;;;36.17;29.27